F04 weather

Public forecast

Using degrees Fahrenheit for public forecast. Weather courtesy of forecast.io.

Closest aviation weather report (METAR) to Saginaw Airport

Closest report is Fort Worth Meacham International Airport, 2.7 nm (5.0 km) SSE. Retrieved 2020/08/15 13:53 UTC (14 minutes ago):

KFTW 151353Z 16009KT 10SM CLR 29/ A2991 RMK AO2 SLP115 T0289

Closest aviation forecast (TAF) to Saginaw Airport

Closest forecast is Fort Worth Meacham International Airport, 2.7 nm (5.0 km) SSE. Retrieved 2020/08/15 12:22 UTC (2 hours ago):

TAF KFTW 151120Z 1512/1612 15009KT P6SM SCT300 FM151800 10009KT P6SM FEW300